sensor_id;sensor_type;location;lat;lon;timestamp;P1;durP1;ratioP1;P2;durP2;ratioP2
11514;SDS011;5814;41.936;25.556;2024-03-02T00:02:01;79.03;;;56.70;;
11514;SDS011;5814;41.936;25.556;2024-03-02T00:04:26;72.63;;;54.00;;
11514;SDS011;5814;41.936;25.556;2024-03-02T00:06:52;76.67;;;55.07;;
11514;SDS011;5814;41.936;25.556;2024-03-02T00:09:21;78.97;;;55.50;;
11514;SDS011;5814;41.936;25.556;2024-03-02T00:11:46;83.77;;;56.23;;
11514;SDS011;5814;41.936;25.556;2024-03-02T00:14:12;78.27;;;57.07;;
11514;SDS011;5814;41.936;25.556;2024-03-02T00:16:38;76.43;;;53.53;;
11514;SDS011;5814;41.936;25.556;2024-03-02T00:19:03;76.57;;;52.70;;
11514;SDS011;5814;41.936;25.556;2024-03-02T00:21:30;71.63;;;52.17;;
11514;SDS011;5814;41.936;25.556;2024-03-02T00:23:57;72.90;;;53.30;;
11514;SDS011;5814;41.936;25.556;2024-03-02T00:26:23;75.93;;;50.40;;
11514;SDS011;5814;41.936;25.556;2024-03-02T00:28:48;72.73;;;52.60;;
11514;SDS011;5814;41.936;25.556;2024-03-02T00:31:15;79.77;;;53.93;;
11514;SDS011;5814;41.936;25.556;2024-03-02T00:33:45;78.20;;;54.23;;
11514;SDS011;5814;41.936;25.556;2024-03-02T00:36:12;79.13;;;54.67;;
11514;SDS011;5814;41.936;25.556;2024-03-02T00:38:49;92.70;;;55.87;;
11514;SDS011;5814;41.936;25.556;2024-03-02T00:41:23;92.50;;;58.37;;
11514;SDS011;5814;41.936;25.556;2024-03-02T00:46:19;89.50;;;60.27;;
11514;SDS011;5814;41.936;25.556;2024-03-02T00:48:51;84.57;;;55.97;;
11514;SDS011;5814;41.936;25.556;2024-03-02T00:51:24;87.40;;;57.47;;
11514;SDS011;5814;41.936;25.556;2024-03-02T00:53:52;80.83;;;58.13;;
11514;SDS011;5814;41.936;25.556;2024-03-02T00:56:21;82.60;;;58.23;;
11514;SDS011;5814;41.936;25.556;2024-03-02T00:58:46;84.97;;;56.37;;
11514;SDS011;5814;41.936;25.556;2024-03-02T01:01:12;81.10;;;57.50;;
11514;SDS011;5814;41.936;25.556;2024-03-02T01:03:37;82.07;;;60.03;;
11514;SDS011;5814;41.936;25.556;2024-03-02T01:06:04;81.63;;;59.20;;
11514;SDS011;5814;41.936;25.556;2024-03-02T01:08:30;90.23;;;62.03;;
11514;SDS011;5814;41.936;25.556;2024-03-02T01:10:55;86.87;;;60.77;;
11514;SDS011;5814;41.936;25.556;2024-03-02T01:13:22;81.57;;;59.43;;
11514;SDS011;5814;41.936;25.556;2024-03-02T01:15:48;89.23;;;61.47;;
11514;SDS011;5814;41.936;25.556;2024-03-02T01:18:14;84.03;;;59.70;;
11514;SDS011;5814;41.936;25.556;2024-03-02T01:20:40;85.93;;;62.20;;
11514;SDS011;5814;41.936;25.556;2024-03-02T01:23:05;86.80;;;62.83;;
11514;SDS011;5814;41.936;25.556;2024-03-02T01:25:31;92.93;;;65.77;;
11514;SDS011;5814;41.936;25.556;2024-03-02T01:27:56;94.93;;;67.77;;
11514;SDS011;5814;41.936;25.556;2024-03-02T01:30:22;95.03;;;61.53;;
11514;SDS011;5814;41.936;25.556;2024-03-02T01:32:47;87.27;;;61.13;;
11514;SDS011;5814;41.936;25.556;2024-03-02T01:35:13;87.87;;;64.37;;
11514;SDS011;5814;41.936;25.556;2024-03-02T01:37:40;96.33;;;66.80;;
11514;SDS011;5814;41.936;25.556;2024-03-02T01:40:06;94.00;;;65.13;;
11514;SDS011;5814;41.936;25.556;2024-03-02T01:42:37;93.93;;;67.70;;
11514;SDS011;5814;41.936;25.556;2024-03-02T01:45:07;94.73;;;66.13;;
11514;SDS011;5814;41.936;25.556;2024-03-02T01:47:34;95.17;;;66.53;;
11514;SDS011;5814;41.936;25.556;2024-03-02T01:50:00;99.57;;;68.70;;
11514;SDS011;5814;41.936;25.556;2024-03-02T01:52:26;103.17;;;67.70;;
11514;SDS011;5814;41.936;25.556;2024-03-02T01:54:52;102.70;;;69.40;;
11514;SDS011;5814;41.936;25.556;2024-03-02T01:57:17;105.07;;;71.93;;
11514;SDS011;5814;41.936;25.556;2024-03-02T01:59:43;109.77;;;70.87;;
11514;SDS011;5814;41.936;25.556;2024-03-02T02:02:09;108.60;;;72.30;;
11514;SDS011;5814;41.936;25.556;2024-03-02T02:04:35;108.63;;;67.57;;
11514;SDS011;5814;41.936;25.556;2024-03-02T02:07:00;109.00;;;66.20;;
11514;SDS011;5814;41.936;25.556;2024-03-02T02:09:26;109.33;;;64.27;;
11514;SDS011;5814;41.936;25.556;2024-03-02T02:11:52;100.47;;;59.70;;
11514;SDS011;5814;41.936;25.556;2024-03-02T02:14:17;101.47;;;62.47;;
11514;SDS011;5814;41.936;25.556;2024-03-02T02:16:43;103.63;;;65.73;;
11514;SDS011;5814;41.936;25.556;2024-03-02T02:19:09;112.63;;;67.37;;
11514;SDS011;5814;41.936;25.556;2024-03-02T02:21:35;108.53;;;67.80;;
11514;SDS011;5814;41.936;25.556;2024-03-02T02:24:01;111.93;;;68.83;;
11514;SDS011;5814;41.936;25.556;2024-03-02T02:26:28;122.97;;;67.07;;
11514;SDS011;5814;41.936;25.556;2024-03-02T02:28:55;109.43;;;63.07;;
11514;SDS011;5814;41.936;25.556;2024-03-02T02:31:20;116.30;;;64.60;;
11514;SDS011;5814;41.936;25.556;2024-03-02T02:33:46;115.17;;;66.37;;
11514;SDS011;5814;41.936;25.556;2024-03-02T02:36:11;118.43;;;62.20;;
11514;SDS011;5814;41.936;25.556;2024-03-02T02:38:38;105.97;;;61.37;;
11514;SDS011;5814;41.936;25.556;2024-03-02T02:41:05;118.30;;;61.37;;
11514;SDS011;5814;41.936;25.556;2024-03-02T02:43:31;87.97;;;54.23;;
11514;SDS011;5814;41.936;25.556;2024-03-02T02:45:57;98.27;;;55.43;;
11514;SDS011;5814;41.936;25.556;2024-03-02T02:48:22;119.40;;;57.53;;
11514;SDS011;5814;41.936;25.556;2024-03-02T02:50:48;93.03;;;57.73;;
11514;SDS011;5814;41.936;25.556;2024-03-02T02:53:13;122.80;;;58.70;;
11514;SDS011;5814;41.936;25.556;2024-03-02T02:55:39;116.23;;;56.93;;
11514;SDS011;5814;41.936;25.556;2024-03-02T02:58:08;98.27;;;57.23;;
11514;SDS011;5814;41.936;25.556;2024-03-02T03:00:33;104.73;;;62.13;;
11514;SDS011;5814;41.936;25.556;2024-03-02T03:02:59;134.03;;;60.80;;
11514;SDS011;5814;41.936;25.556;2024-03-02T03:05:24;116.70;;;61.60;;
11514;SDS011;5814;41.936;25.556;2024-03-02T03:07:50;127.30;;;61.40;;
11514;SDS011;5814;41.936;25.556;2024-03-02T03:10:15;117.13;;;63.77;;
11514;SDS011;5814;41.936;25.556;2024-03-02T03:12:42;122.33;;;64.27;;
11514;SDS011;5814;41.936;25.556;2024-03-02T03:15:08;106.77;;;63.87;;
11514;SDS011;5814;41.936;25.556;2024-03-02T03:17:35;109.73;;;55.67;;
11514;SDS011;5814;41.936;25.556;2024-03-02T03:20:02;130.23;;;58.27;;
11514;SDS011;5814;41.936;25.556;2024-03-02T03:22:29;123.93;;;62.13;;
11514;SDS011;5814;41.936;25.556;2024-03-02T03:24:56;123.20;;;69.00;;
11514;SDS011;5814;41.936;25.556;2024-03-02T03:27:21;133.57;;;60.27;;
11514;SDS011;5814;41.936;25.556;2024-03-02T03:29:47;110.23;;;59.60;;
11514;SDS011;5814;41.936;25.556;2024-03-02T03:32:12;117.17;;;62.13;;
11514;SDS011;5814;41.936;25.556;2024-03-02T03:34:38;141.70;;;60.43;;
11514;SDS011;5814;41.936;25.556;2024-03-02T03:37:04;125.23;;;59.77;;
11514;SDS011;5814;41.936;25.556;2024-03-02T03:39:30;125.27;;;61.57;;
11514;SDS011;5814;41.936;25.556;2024-03-02T03:41:55;169.13;;;61.13;;
11514;SDS011;5814;41.936;25.556;2024-03-02T03:44:21;126.87;;;62.47;;
11514;SDS011;5814;41.936;25.556;2024-03-02T03:46:46;138.40;;;64.33;;
11514;SDS011;5814;41.936;25.556;2024-03-02T03:49:12;120.37;;;61.17;;
11514;SDS011;5814;41.936;25.556;2024-03-02T03:51:37;124.43;;;62.10;;
11514;SDS011;5814;41.936;25.556;2024-03-02T03:54:02;161.53;;;60.20;;
11514;SDS011;5814;41.936;25.556;2024-03-02T03:56:28;136.80;;;60.93;;
11514;SDS011;5814;41.936;25.556;2024-03-02T03:58:53;137.53;;;64.10;;
11514;SDS011;5814;41.936;25.556;2024-03-02T04:01:19;149.20;;;64.17;;
11514;SDS011;5814;41.936;25.556;2024-03-02T04:03:45;134.03;;;65.53;;
11514;SDS011;5814;41.936;25.556;2024-03-02T04:06:10;135.63;;;66.63;;
11514;SDS011;5814;41.936;25.556;2024-03-02T04:08:36;132.70;;;68.17;;
11514;SDS011;5814;41.936;25.556;2024-03-02T04:11:01;134.47;;;66.53;;
11514;SDS011;5814;41.936;25.556;2024-03-02T04:13:28;138.90;;;64.57;;
11514;SDS011;5814;41.936;25.556;2024-03-02T04:15:53;210.33;;;64.43;;
11514;SDS011;5814;41.936;25.556;2024-03-02T04:18:19;157.57;;;62.00;;
11514;SDS011;5814;41.936;25.556;2024-03-02T04:20:44;177.20;;;62.70;;
11514;SDS011;5814;41.936;25.556;2024-03-02T04:23:10;153.23;;;61.97;;
11514;SDS011;5814;41.936;25.556;2024-03-02T04:25:35;239.70;;;62.20;;
11514;SDS011;5814;41.936;25.556;2024-03-02T04:28:01;135.60;;;63.00;;
11514;SDS011;5814;41.936;25.556;2024-03-02T04:30:26;137.73;;;65.40;;
11514;SDS011;5814;41.936;25.556;2024-03-02T04:32:52;138.93;;;67.53;;
11514;SDS011;5814;41.936;25.556;2024-03-02T04:35:17;152.60;;;63.50;;
11514;SDS011;5814;41.936;25.556;2024-03-02T04:37:43;193.10;;;63.37;;
11514;SDS011;5814;41.936;25.556;2024-03-02T04:40:09;172.40;;;64.13;;
11514;SDS011;5814;41.936;25.556;2024-03-02T04:42:35;171.30;;;65.73;;
11514;SDS011;5814;41.936;25.556;2024-03-02T04:45:01;190.87;;;69.13;;
11514;SDS011;5814;41.936;25.556;2024-03-02T04:47:26;152.30;;;67.50;;
11514;SDS011;5814;41.936;25.556;2024-03-02T04:49:52;225.90;;;63.10;;
11514;SDS011;5814;41.936;25.556;2024-03-02T04:52:18;204.83;;;64.07;;
11514;SDS011;5814;41.936;25.556;2024-03-02T04:54:44;187.87;;;61.17;;
11514;SDS011;5814;41.936;25.556;2024-03-02T04:57:28;127.80;;;62.77;;
11514;SDS011;5814;41.936;25.556;2024-03-02T04:59:53;150.20;;;59.77;;
11514;SDS011;5814;41.936;25.556;2024-03-02T05:02:19;200.90;;;65.00;;
11514;SDS011;5814;41.936;25.556;2024-03-02T05:04:44;142.77;;;66.77;;
11514;SDS011;5814;41.936;25.556;2024-03-02T05:07:10;131.60;;;65.23;;
11514;SDS011;5814;41.936;25.556;2024-03-02T05:09:35;148.90;;;70.33;;
11514;SDS011;5814;41.936;25.556;2024-03-02T05:12:01;151.80;;;65.97;;
11514;SDS011;5814;41.936;25.556;2024-03-02T05:14:36;161.00;;;63.97;;
11514;SDS011;5814;41.936;25.556;2024-03-02T05:17:02;142.63;;;65.50;;
11514;SDS011;5814;41.936;25.556;2024-03-02T05:19:28;167.97;;;69.33;;
11514;SDS011;5814;41.936;25.556;2024-03-02T05:21:53;136.60;;;70.27;;
11514;SDS011;5814;41.936;25.556;2024-03-02T05:24:18;138.30;;;69.80;;
11514;SDS011;5814;41.936;25.556;2024-03-02T05:26:44;141.77;;;70.20;;
11514;SDS011;5814;41.936;25.556;2024-03-02T05:29:09;149.87;;;72.43;;
11514;SDS011;5814;41.936;25.556;2024-03-02T05:31:35;132.33;;;64.80;;
11514;SDS011;5814;41.936;25.556;2024-03-02T05:34:00;154.13;;;76.10;;
11514;SDS011;5814;41.936;25.556;2024-03-02T05:36:26;152.33;;;68.43;;
11514;SDS011;5814;41.936;25.556;2024-03-02T05:38:51;149.37;;;73.70;;
11514;SDS011;5814;41.936;25.556;2024-03-02T05:41:17;159.23;;;69.13;;
11514;SDS011;5814;41.936;25.556;2024-03-02T05:43:43;141.73;;;68.83;;
11514;SDS011;5814;41.936;25.556;2024-03-02T05:46:08;133.50;;;73.07;;
11514;SDS011;5814;41.936;25.556;2024-03-02T05:48:34;115.23;;;62.97;;
11514;SDS011;5814;41.936;25.556;2024-03-02T05:50:59;125.63;;;68.47;;
11514;SDS011;5814;41.936;25.556;2024-03-02T05:53:25;116.20;;;66.70;;
11514;SDS011;5814;41.936;25.556;2024-03-02T05:55:50;96.67;;;56.57;;
11514;SDS011;5814;41.936;25.556;2024-03-02T05:58:20;114.50;;;59.27;;
11514;SDS011;5814;41.936;25.556;2024-03-02T06:00:45;110.33;;;65.60;;
11514;SDS011;5814;41.936;25.556;2024-03-02T06:03:11;115.37;;;67.63;;
11514;SDS011;5814;41.936;25.556;2024-03-02T06:05:36;108.40;;;64.07;;
11514;SDS011;5814;41.936;25.556;2024-03-02T06:08:02;111.13;;;66.60;;
11514;SDS011;5814;41.936;25.556;2024-03-02T06:10:28;103.77;;;64.53;;
11514;SDS011;5814;41.936;25.556;2024-03-02T06:12:53;112.40;;;68.40;;
11514;SDS011;5814;41.936;25.556;2024-03-02T06:15:19;106.50;;;68.00;;
11514;SDS011;5814;41.936;25.556;2024-03-02T06:17:44;111.57;;;72.43;;
11514;SDS011;5814;41.936;25.556;2024-03-02T06:20:10;110.40;;;69.43;;
11514;SDS011;5814;41.936;25.556;2024-03-02T06:22:36;100.23;;;66.50;;
11514;SDS011;5814;41.936;25.556;2024-03-02T06:25:02;96.77;;;65.73;;
11514;SDS011;5814;41.936;25.556;2024-03-02T06:27:27;92.80;;;64.67;;
11514;SDS011;5814;41.936;25.556;2024-03-02T06:29:53;73.17;;;56.07;;
11514;SDS011;5814;41.936;25.556;2024-03-02T06:32:19;81.77;;;58.43;;
11514;SDS011;5814;41.936;25.556;2024-03-02T06:34:45;70.43;;;55.13;;
11514;SDS011;5814;41.936;25.556;2024-03-02T06:37:10;70.57;;;55.73;;
11514;SDS011;5814;41.936;25.556;2024-03-02T06:39:36;74.87;;;56.20;;
11514;SDS011;5814;41.936;25.556;2024-03-02T06:42:01;72.73;;;55.73;;
11514;SDS011;5814;41.936;25.556;2024-03-02T06:44:27;70.23;;;56.63;;
11514;SDS011;5814;41.936;25.556;2024-03-02T06:46:53;66.17;;;52.10;;
11514;SDS011;5814;41.936;25.556;2024-03-02T06:49:18;55.07;;;45.23;;
11514;SDS011;5814;41.936;25.556;2024-03-02T06:51:44;66.53;;;52.57;;
11514;SDS011;5814;41.936;25.556;2024-03-02T06:54:10;58.60;;;48.30;;
11514;SDS011;5814;41.936;25.556;2024-03-02T06:56:35;56.70;;;45.23;;
11514;SDS011;5814;41.936;25.556;2024-03-02T06:59:00;55.90;;;46.20;;
11514;SDS011;5814;41.936;25.556;2024-03-02T07:01:26;54.03;;;46.47;;
11514;SDS011;5814;41.936;25.556;2024-03-02T07:03:53;52.17;;;43.93;;
11514;SDS011;5814;41.936;25.556;2024-03-02T07:06:19;55.30;;;45.23;;
11514;SDS011;5814;41.936;25.556;2024-03-02T07:08:44;53.00;;;43.57;;
11514;SDS011;5814;41.936;25.556;2024-03-02T07:11:10;55.37;;;43.83;;
11514;SDS011;5814;41.936;25.556;2024-03-02T07:13:35;50.97;;;41.33;;
11514;SDS011;5814;41.936;25.556;2024-03-02T07:16:00;53.40;;;42.97;;
11514;SDS011;5814;41.936;25.556;2024-03-02T07:18:26;52.70;;;40.93;;
11514;SDS011;5814;41.936;25.556;2024-03-02T07:20:52;49.57;;;39.23;;
11514;SDS011;5814;41.936;25.556;2024-03-02T07:23:17;60.33;;;46.63;;
11514;SDS011;5814;41.936;25.556;2024-03-02T07:25:43;58.43;;;49.83;;
11514;SDS011;5814;41.936;25.556;2024-03-02T07:28:08;50.00;;;38.67;;
11514;SDS011;5814;41.936;25.556;2024-03-02T07:30:34;52.43;;;40.37;;
11514;SDS011;5814;41.936;25.556;2024-03-02T07:32:59;55.33;;;42.40;;
11514;SDS011;5814;41.936;25.556;2024-03-02T07:35:25;51.47;;;40.87;;
11514;SDS011;5814;41.936;25.556;2024-03-02T07:37:53;50.47;;;40.47;;
11514;SDS011;5814;41.936;25.556;2024-03-02T07:40:20;47.87;;;40.37;;
11514;SDS011;5814;41.936;25.556;2024-03-02T07:42:46;49.30;;;40.37;;
11514;SDS011;5814;41.936;25.556;2024-03-02T07:45:11;36.20;;;31.37;;
11514;SDS011;5814;41.936;25.556;2024-03-02T07:47:37;48.60;;;41.70;;
11514;SDS011;5814;41.936;25.556;2024-03-02T07:50:02;40.87;;;35.20;;
11514;SDS011;5814;41.936;25.556;2024-03-02T07:52:31;43.27;;;38.60;;
11514;SDS011;5814;41.936;25.556;2024-03-02T07:54:57;42.33;;;36.60;;
11514;SDS011;5814;41.936;25.556;2024-03-02T07:57:23;44.97;;;38.73;;
11514;SDS011;5814;41.936;25.556;2024-03-02T07:59:48;42.80;;;37.97;;
11514;SDS011;5814;41.936;25.556;2024-03-02T08:02:14;41.27;;;36.47;;
11514;SDS011;5814;41.936;25.556;2024-03-02T08:04:40;39.20;;;34.93;;
11514;SDS011;5814;41.936;25.556;2024-03-02T08:07:06;37.13;;;32.73;;
11514;SDS011;5814;41.936;25.556;2024-03-02T08:09:31;38.50;;;34.40;;
11514;SDS011;5814;41.936;25.556;2024-03-02T08:11:57;39.33;;;35.23;;
11514;SDS011;5814;41.936;25.556;2024-03-02T08:14:25;40.43;;;36.03;;
11514;SDS011;5814;41.936;25.556;2024-03-02T08:16:51;39.33;;;35.13;;
11514;SDS011;5814;41.936;25.556;2024-03-02T08:19:47;39.20;;;34.93;;
11514;SDS011;5814;41.936;25.556;2024-03-02T08:22:59;38.47;;;34.47;;
11514;SDS011;5814;41.936;25.556;2024-03-02T08:25:25;40.17;;;35.53;;
11514;SDS011;5814;41.936;25.556;2024-03-02T08:28:38;36.90;;;33.10;;
11514;SDS011;5814;41.936;25.556;2024-03-02T08:32:02;36.37;;;32.60;;
11514;SDS011;5814;41.936;25.556;2024-03-02T08:35:25;41.13;;;37.10;;
11514;SDS011;5814;41.936;25.556;2024-03-02T08:38:51;40.03;;;35.63;;
11514;SDS011;5814;41.936;25.556;2024-03-02T08:42:13;39.10;;;35.13;;
11514;SDS011;5814;41.936;25.556;2024-03-02T08:44:39;41.10;;;36.77;;
11514;SDS011;5814;41.936;25.556;2024-03-02T08:47:04;41.47;;;37.00;;
11514;SDS011;5814;41.936;25.556;2024-03-02T08:49:30;43.30;;;37.50;;
11514;SDS011;5814;41.936;25.556;2024-03-02T08:51:55;42.73;;;38.10;;
11514;SDS011;5814;41.936;25.556;2024-03-02T08:54:23;46.60;;;41.63;;
11514;SDS011;5814;41.936;25.556;2024-03-02T08:56:49;49.33;;;43.13;;
11514;SDS011;5814;41.936;25.556;2024-03-02T08:59:15;49.27;;;44.07;;
11514;SDS011;5814;41.936;25.556;2024-03-02T09:01:41;46.23;;;41.53;;
11514;SDS011;5814;41.936;25.556;2024-03-02T09:04:07;42.50;;;38.10;;
11514;SDS011;5814;41.936;25.556;2024-03-02T09:06:36;48.60;;;43.37;;
11514;SDS011;5814;41.936;25.556;2024-03-02T09:09:02;44.93;;;40.23;;
11514;SDS011;5814;41.936;25.556;2024-03-02T09:11:28;46.40;;;41.20;;
11514;SDS011;5814;41.936;25.556;2024-03-02T09:13:53;40.77;;;36.67;;
11514;SDS011;5814;41.936;25.556;2024-03-02T09:16:21;43.47;;;38.77;;
11514;SDS011;5814;41.936;25.556;2024-03-02T09:18:46;48.00;;;42.63;;
11514;SDS011;5814;41.936;25.556;2024-03-02T09:21:12;52.50;;;44.60;;
11514;SDS011;5814;41.936;25.556;2024-03-02T09:23:38;58.00;;;46.17;;
11514;SDS011;5814;41.936;25.556;2024-03-02T09:26:05;50.43;;;44.83;;
11514;SDS011;5814;41.936;25.556;2024-03-02T09:28:30;54.63;;;45.93;;
11514;SDS011;5814;41.936;25.556;2024-03-02T09:30:56;50.63;;;45.37;;
11514;SDS011;5814;41.936;25.556;2024-03-02T09:33:21;65.17;;;52.07;;
11514;SDS011;5814;41.936;25.556;2024-03-02T09:35:47;49.23;;;43.90;;
11514;SDS011;5814;41.936;25.556;2024-03-02T09:38:13;55.90;;;47.60;;
11514;SDS011;5814;41.936;25.556;2024-03-02T09:40:40;53.73;;;48.03;;
11514;SDS011;5814;41.936;25.556;2024-03-02T09:43:07;55.13;;;49.03;;
11514;SDS011;5814;41.936;25.556;2024-03-02T09:45:32;60.80;;;51.77;;
11514;SDS011;5814;41.936;25.556;2024-03-02T09:47:58;91.87;;;82.33;;
11514;SDS011;5814;41.936;25.556;2024-03-02T09:50:24;66.77;;;56.47;;
11514;SDS011;5814;41.936;25.556;2024-03-02T09:52:50;70.87;;;61.13;;
11514;SDS011;5814;41.936;25.556;2024-03-02T09:55:17;62.53;;;54.77;;
11514;SDS011;5814;41.936;25.556;2024-03-02T09:57:45;74.27;;;62.77;;
11514;SDS011;5814;41.936;25.556;2024-03-02T10:00:11;79.40;;;62.93;;
11514;SDS011;5814;41.936;25.556;2024-03-02T10:02:40;72.80;;;58.17;;
11514;SDS011;5814;41.936;25.556;2024-03-02T10:05:06;71.40;;;59.13;;
11514;SDS011;5814;41.936;25.556;2024-03-02T10:07:33;71.47;;;57.30;;
11514;SDS011;5814;41.936;25.556;2024-03-02T10:09:59;62.57;;;51.10;;
11514;SDS011;5814;41.936;25.556;2024-03-02T10:12:38;63.07;;;53.73;;
11514;SDS011;5814;41.936;25.556;2024-03-02T10:15:03;59.87;;;51.07;;
11514;SDS011;5814;41.936;25.556;2024-03-02T10:17:30;60.20;;;52.40;;
11514;SDS011;5814;41.936;25.556;2024-03-02T10:19:56;64.33;;;53.17;;
11514;SDS011;5814;41.936;25.556;2024-03-02T10:22:22;66.10;;;51.67;;
11514;SDS011;5814;41.936;25.556;2024-03-02T10:24:49;62.50;;;53.90;;
11514;SDS011;5814;41.936;25.556;2024-03-02T10:29:47;61.70;;;51.87;;
11514;SDS011;5814;41.936;25.556;2024-03-02T10:32:14;62.83;;;50.10;;
11514;SDS011;5814;41.936;25.556;2024-03-02T10:34:41;61.37;;;50.17;;
11514;SDS011;5814;41.936;25.556;2024-03-02T10:37:07;62.17;;;51.40;;
11514;SDS011;5814;41.936;25.556;2024-03-02T10:39:36;55.27;;;48.00;;
11514;SDS011;5814;41.936;25.556;2024-03-02T10:42:02;55.87;;;48.77;;
11514;SDS011;5814;41.936;25.556;2024-03-02T10:44:28;58.23;;;48.47;;
11514;SDS011;5814;41.936;25.556;2024-03-02T10:46:56;59.60;;;48.97;;
11514;SDS011;5814;41.936;25.556;2024-03-02T10:49:23;64.17;;;52.93;;
11514;SDS011;5814;41.936;25.556;2024-03-02T10:51:50;60.50;;;49.60;;
11514;SDS011;5814;41.936;25.556;2024-03-02T10:54:15;60.00;;;51.40;;
11514;SDS011;5814;41.936;25.556;2024-03-02T10:56:44;57.80;;;50.63;;
11514;SDS011;5814;41.936;25.556;2024-03-02T10:59:15;61.80;;;52.10;;
11514;SDS011;5814;41.936;25.556;2024-03-02T11:01:42;66.90;;;56.33;;
11514;SDS011;5814;41.936;25.556;2024-03-02T11:04:09;66.10;;;56.23;;
11514;SDS011;5814;41.936;25.556;2024-03-02T11:06:37;60.07;;;52.60;;
11514;SDS011;5814;41.936;25.556;2024-03-02T11:09:06;59.50;;;52.47;;
11514;SDS011;5814;41.936;25.556;2024-03-02T11:11:37;63.70;;;51.97;;
11514;SDS011;5814;41.936;25.556;2024-03-02T11:14:07;66.30;;;54.57;;
11514;SDS011;5814;41.936;25.556;2024-03-02T11:16:37;66.10;;;55.47;;
11514;SDS011;5814;41.936;25.556;2024-03-02T11:19:05;64.53;;;55.43;;
11514;SDS011;5814;41.936;25.556;2024-03-02T11:21:35;61.67;;;52.23;;
11514;SDS011;5814;41.936;25.556;2024-03-02T11:26:52;62.87;;;52.47;;
11514;SDS011;5814;41.936;25.556;2024-03-02T11:32:02;58.77;;;49.60;;
11514;SDS011;5814;41.936;25.556;2024-03-02T11:34:29;60.73;;;51.77;;
11514;SDS011;5814;41.936;25.556;2024-03-02T11:36:56;57.60;;;51.07;;
11514;SDS011;5814;41.936;25.556;2024-03-02T11:39:24;59.60;;;50.13;;
11514;SDS011;5814;41.936;25.556;2024-03-02T11:41:51;57.67;;;51.37;;
11514;SDS011;5814;41.936;25.556;2024-03-02T11:44:17;55.37;;;49.20;;
11514;SDS011;5814;41.936;25.556;2024-03-02T11:46:44;57.07;;;49.13;;
11514;SDS011;5814;41.936;25.556;2024-03-02T11:49:14;56.90;;;48.33;;
11514;SDS011;5814;41.936;25.556;2024-03-02T11:51:40;53.90;;;48.07;;
11514;SDS011;5814;41.936;25.556;2024-03-02T11:54:25;55.70;;;49.63;;
11514;SDS011;5814;41.936;25.556;2024-03-02T11:56:55;53.87;;;48.00;;
11514;SDS011;5814;41.936;25.556;2024-03-02T11:59:21;54.03;;;48.17;;
11514;SDS011;5814;41.936;25.556;2024-03-02T12:01:48;55.33;;;47.27;;
11514;SDS011;5814;41.936;25.556;2024-03-02T12:04:15;52.20;;;46.10;;
11514;SDS011;5814;41.936;25.556;2024-03-02T12:06:40;52.10;;;44.93;;
11514;SDS011;5814;41.936;25.556;2024-03-02T12:09:09;52.63;;;45.10;;
11514;SDS011;5814;41.936;25.556;2024-03-02T12:11:37;55.83;;;47.57;;
11514;SDS011;5814;41.936;25.556;2024-03-02T12:14:02;57.40;;;48.03;;
11514;SDS011;5814;41.936;25.556;2024-03-02T12:16:29;49.20;;;43.90;;
11514;SDS011;5814;41.936;25.556;2024-03-02T12:18:54;52.90;;;43.43;;
11514;SDS011;5814;41.936;25.556;2024-03-02T12:21:21;50.20;;;43.77;;
11514;SDS011;5814;41.936;25.556;2024-03-02T12:23:46;48.13;;;41.47;;
11514;SDS011;5814;41.936;25.556;2024-03-02T12:26:12;49.67;;;41.83;;
11514;SDS011;5814;41.936;25.556;2024-03-02T12:28:37;51.37;;;43.50;;
11514;SDS011;5814;41.936;25.556;2024-03-02T12:31:03;52.00;;;43.07;;
11514;SDS011;5814;41.936;25.556;2024-03-02T12:33:29;50.90;;;44.23;;
11514;SDS011;5814;41.936;25.556;2024-03-02T12:35:56;54.97;;;43.93;;
11514;SDS011;5814;41.936;25.556;2024-03-02T12:38:22;47.43;;;40.53;;
11514;SDS011;5814;41.936;25.556;2024-03-02T12:40:51;51.93;;;42.33;;
11514;SDS011;5814;41.936;25.556;2024-03-02T12:43:17;54.67;;;44.57;;
11514;SDS011;5814;41.936;25.556;2024-03-02T12:45:43;49.40;;;43.03;;
11514;SDS011;5814;41.936;25.556;2024-03-02T12:48:09;51.23;;;43.80;;
11514;SDS011;5814;41.936;25.556;2024-03-02T12:50:34;52.47;;;44.40;;
11514;SDS011;5814;41.936;25.556;2024-03-02T12:53:00;54.57;;;46.17;;
11514;SDS011;5814;41.936;25.556;2024-03-02T12:55:26;47.90;;;42.07;;
11514;SDS011;5814;41.936;25.556;2024-03-02T12:57:54;50.03;;;43.60;;
11514;SDS011;5814;41.936;25.556;2024-03-02T13:00:19;53.90;;;44.13;;
11514;SDS011;5814;41.936;25.556;2024-03-02T13:02:46;51.77;;;44.87;;
11514;SDS011;5814;41.936;25.556;2024-03-02T13:05:13;52.83;;;42.73;;
11514;SDS011;5814;41.936;25.556;2024-03-02T13:07:39;53.33;;;44.40;;
11514;SDS011;5814;41.936;25.556;2024-03-02T13:10:06;55.30;;;44.67;;
11514;SDS011;5814;41.936;25.556;2024-03-02T13:12:35;50.33;;;42.93;;
11514;SDS011;5814;41.936;25.556;2024-03-02T13:15:01;50.10;;;44.30;;
11514;SDS011;5814;41.936;25.556;2024-03-02T13:17:28;55.33;;;43.90;;
11514;SDS011;5814;41.936;25.556;2024-03-02T13:19:58;52.80;;;44.27;;
11514;SDS011;5814;41.936;25.556;2024-03-02T13:22:25;49.60;;;44.00;;
11514;SDS011;5814;41.936;25.556;2024-03-02T13:24:51;55.17;;;44.30;;
11514;SDS011;5814;41.936;25.556;2024-03-02T13:27:19;52.92;;;42.88;;
11514;SDS011;5814;41.936;25.556;2024-03-02T13:29:48;49.47;;;42.33;;
11514;SDS011;5814;41.936;25.556;2024-03-02T13:32:14;51.17;;;42.87;;
11514;SDS011;5814;41.936;25.556;2024-03-02T13:34:40;53.50;;;43.93;;
11514;SDS011;5814;41.936;25.556;2024-03-02T13:37:06;49.50;;;44.10;;
11514;SDS011;5814;41.936;25.556;2024-03-02T13:39:31;50.30;;;42.23;;
11514;SDS011;5814;41.936;25.556;2024-03-02T13:41:58;48.53;;;40.70;;
11514;SDS011;5814;41.936;25.556;2024-03-02T13:44:29;48.83;;;41.53;;
11514;SDS011;5814;41.936;25.556;2024-03-02T13:46:55;49.17;;;43.00;;
11514;SDS011;5814;41.936;25.556;2024-03-02T13:49:21;58.53;;;47.03;;
11514;SDS011;5814;41.936;25.556;2024-03-02T13:51:48;46.30;;;40.60;;
11514;SDS011;5814;41.936;25.556;2024-03-02T13:54:13;60.10;;;44.00;;
11514;SDS011;5814;41.936;25.556;2024-03-02T13:56:39;52.80;;;43.10;;
11514;SDS011;5814;41.936;25.556;2024-03-02T13:59:05;53.80;;;46.00;;
11514;SDS011;5814;41.936;25.556;2024-03-02T14:01:31;48.90;;;42.30;;
11514;SDS011;5814;41.936;25.556;2024-03-02T14:03:58;51.10;;;42.37;;
11514;SDS011;5814;41.936;25.556;2024-03-02T14:06:23;45.57;;;40.57;;
11514;SDS011;5814;41.936;25.556;2024-03-02T14:08:52;47.83;;;40.90;;
11514;SDS011;5814;41.936;25.556;2024-03-02T14:11:18;50.03;;;41.93;;
11514;SDS011;5814;41.936;25.556;2024-03-02T14:13:44;44.27;;;39.67;;
11514;SDS011;5814;41.936;25.556;2024-03-02T14:16:14;45.10;;;38.93;;
11514;SDS011;5814;41.936;25.556;2024-03-02T14:18:40;42.83;;;38.27;;
11514;SDS011;5814;41.936;25.556;2024-03-02T14:21:07;43.83;;;39.13;;
11514;SDS011;5814;41.936;25.556;2024-03-02T14:23:33;46.23;;;39.13;;
11514;SDS011;5814;41.936;25.556;2024-03-02T14:25:58;44.33;;;39.60;;
11514;SDS011;5814;41.936;25.556;2024-03-02T14:28:24;44.73;;;39.80;;
11514;SDS011;5814;41.936;25.556;2024-03-02T14:30:49;43.27;;;38.57;;